M I D A S
Marine Information and Data Acquisition System
Tripno 200 of the Zeeleeuw from 2002-01-18 05:26:21 to 2002-01-18 14:59:22
Back to CruiseResearch ActivitiesStationsMapUnderway DataData graphs

EquipmentUnitsComment
TimeDGPSUTC
LatitudeDGPSDM.mWGS84
LongitudeDGPSDM.mWGS84
HeadingGyrodeg 
SOGDGPSknotsSpeed over ground
COGDGPSdegCourse over ground
DepthEcho soundermeters200 kHz
Missing or incorrect values are displayed as -999
Navigation data collected by the RV Zeeleeuw from 2002-01-18 05:26:21 to 2002-01-18 14:59:22
                                                                                    Next 1000 lines
Time Latitude Longitude Heading SOG COG Depth
2002-01-18 05:26:31 51°13.687 2°55.905 114 0.1 200.7 8.9
2002-01-18 05:26:36 51°13.687 2°55.905 113.2 0.1 204.5 9
2002-01-18 05:26:41 51°13.687 2°55.905 112.2 0.1 212.8 9
2002-01-18 05:26:46 51°13.687 2°55.905 111.3 0.1 213.2 9
2002-01-18 05:26:51 51°13.687 2°55.905 110.5 0.1 208.4 9.1
2002-01-18 05:26:56 51°13.686 2°55.905 109.5 0.1 199.4 9.1
2002-01-18 05:27:01 51°13.686 2°55.905 108.8 0.1 196.2 9.1
2002-01-18 05:27:06 51°13.686 2°55.905 107.8 0.1 209.3 9.2
2002-01-18 05:27:11 51°13.686 2°55.905 107 0.1 203 9.1
2002-01-18 05:27:16 51°13.686 2°55.905 106.2 0.1 198.4 9.2
2002-01-18 05:27:22 51°13.686 2°55.904 105.3 0.1 207.4 9.2
2002-01-18 05:27:26 51°13.686 2°55.904 104.7 0.1 210.9 9.2
2002-01-18 05:27:31 51°13.686 2°55.904 103.8 0.1 209.4 9.2
2002-01-18 05:27:36 51°13.685 2°55.904 103 0.1 211.7 9.2
2002-01-18 05:27:41 51°13.684 2°55.904 102.3 0.1 209.3 9.3
2002-01-18 05:27:46 51°13.683 2°55.904 101.5 0.1 211.7 9.3
2002-01-18 05:27:52 51°13.684 2°55.904 100.8 0.1 225.1 9.4
2002-01-18 05:27:56 51°13.684 2°55.904 100.2 0.1 223.6 9.3
2002-01-18 05:28:01 51°13.684 2°55.904 99.5 0.1 213 9.4
2002-01-18 05:28:06 51°13.684 2°55.904 98.8   228.5 9.4
2002-01-18 05:28:09 51°13.684 2°55.904 98.2 0.1 231.5 9.4
2002-01-18 05:28:17 51°13.683 2°55.904 97.7 0.1 227.2 9.4
2002-01-18 05:28:21 51°13.683 2°55.904 97.2 0.1 223.3 9.4
2002-01-18 05:28:26 51°13.683 2°55.903 96.5 0.1 221.7 9.5
2002-01-18 05:28:31 51°13.683 2°55.903 96 0.1 220 9.5
2002-01-18 05:28:36 51°13.683 2°55.903 95.5 0.1 213 9.5
2002-01-18 05:28:41 51°13.683 2°55.903 95.2 0.1 202.2 9.5
2002-01-18 05:28:45 51°13.683 2°55.903 95   211.2 9.5
2002-01-18 05:28:52 51°13.683 2°55.903 95.2   275.4 9.5
2002-01-18 05:28:57 51°13.683 2°55.903 95.3 0.1 290 9.6
2002-01-18 05:29:02 51°13.683 2°55.902 95.2 0.3 279 9.6
2002-01-18 05:29:07 51°13.684 2°55.9 95.2 0.6 277.9 9.7
2002-01-18 05:29:12 51°13.684 2°55.898 95.3 1 276.8 9.7
2002-01-18 05:29:17 51°13.685 2°55.895 95.3 1.3 276.3 10
2002-01-18 05:29:22 51°13.685 2°55.891 95.2 1.7 275.6 10.2
2002-01-18 05:29:27 51°13.686 2°55.886 94.8 2.1 275.5 -999
2002-01-18 05:29:32 51°13.686 2°55.88 94.3 2.3 275.1 -999
2002-01-18 05:29:38 51°13.687 2°55.873 93.5 2.7 274.4 -999
2002-01-18 05:29:42 51°13.687 2°55.868 92.7 2.9 273.8 -999
2002-01-18 05:29:47 51°13.687 2°55.86 91.7 3.2 273 -999
2002-01-18 05:29:52 51°13.687 2°55.853 90.7 3.4 271.7 -999
2002-01-18 05:29:57 51°13.687 2°55.845 89.7 3.6 270.5 -999
2002-01-18 05:30:02 51°13.687 2°55.837 89 3.5 269.5 -999
2002-01-18 05:30:07 51°13.687 2°55.83 88.3 3.4 268.9 -999
2002-01-18 05:30:12 51°13.687 2°55.823 87.5 3.3 267.9 -999
2002-01-18 05:30:17 51°13.687 2°55.815 86.8 3.2 267.3 -999
2002-01-18 05:30:22 51°13.687 2°55.809 86.2 3.2 266.6 -999
2002-01-18 05:30:27 51°13.687 2°55.802 85.5 3.2 265.9 11.3
2002-01-18 05:30:32 51°13.686 2°55.794 84.8 3.2 265.3 -999
2002-01-18 05:30:37 51°13.686 2°55.788 84.2 3.1 264.7 -999
2002-01-18 05:30:42 51°13.686 2°55.782 83.5 3 264.7 -999
2002-01-18 05:30:48 51°13.685 2°55.774 83 2.8 264.3 -999
2002-01-18 05:30:52 51°13.685 2°55.769 82.3 2.7 264 -999
2002-01-18 05:30:57 51°13.684 2°55.764 81.7 2.7 263.8 -999
2002-01-18 05:31:02 51°13.684 2°55.758 80.8 2.6 263.3 13.4
2002-01-18 05:31:06 51°13.684 2°55.754 80.3 2.5 262.7 13.4
2002-01-18 05:31:11 51°13.683 2°55.749 79.5 2.4 262 13.3
2002-01-18 05:31:16 51°13.683 2°55.743 78.7 2.4 261.6 13.1
2002-01-18 05:31:23 51°13.682 2°55.737 78 2.2 261.5 -999
2002-01-18 05:31:26 51°13.682 2°55.735 76.7 1.9 261.7 13.3
2002-01-18 05:31:31 51°13.682 2°55.733 73.5 1.2 265 13.3
2002-01-18 05:31:36 51°13.683 2°55.733 67.8 0.5 295.2 13.4
2002-01-18 05:31:41 51°13.684 2°55.734 60 0.6 23.5 13.4
2002-01-18 05:31:46 51°13.686 2°55.736 51.3 1.3 36.4 13.4
2002-01-18 05:31:51 51°13.688 2°55.739 42.7 1.9 33.7 13.4
2002-01-18 05:31:57 51°13.692 2°55.742 33.7 2.3 29.6 13.4
2002-01-18 05:32:01 51°13.696 2°55.743 25.2 2.9 20.5 13.4
2002-01-18 05:32:06 51°13.701 2°55.745 16.5 3.4 12.6 13.4
2002-01-18 05:32:11 51°13.706 2°55.745 7 3.9 4.1 13.4
2002-01-18 05:32:16 51°13.713 2°55.743 357.5 4.3 357.4 13.4
2002-01-18 05:32:21 51°13.72 2°55.741 349.5 5 347.9 12.9
2002-01-18 05:32:26 51°13.728 2°55.736 342.8 5.5 342.5 12.1
2002-01-18 05:32:32 51°13.737 2°55.729 337.7 6.1 336.6 11.9
2002-01-18 05:32:37 51°13.745 2°55.721 333.5 6.5 332.8 11.5
2002-01-18 05:32:41 51°13.752 2°55.715 331.3 7.1 329.1 11.4
2002-01-18 05:32:46 51°13.761 2°55.705 330 7.4 327.7 11.3
2002-01-18 05:32:50 51°13.769 2°55.698 330.2 7.9 326.7 11.4
2002-01-18 05:32:56 51°13.78 2°55.686 330.8 8.1 326.8 11.5
2002-01-18 05:33:02 51°13.793 2°55.673 330.7 8.5 327.2 11.5
2002-01-18 05:33:07 51°13.803 2°55.663 331.5 8.7 327.7 11.5
2002-01-18 05:33:11 51°13.812 2°55.655 333.7 8.9 329.3 11.5
2002-01-18 05:33:17 51°13.825 2°55.644 336 8 331.2 11.4
2002-01-18 05:33:22 51°13.837 2°55.635 336.7 8.7 332.7 11.4
2002-01-18 05:33:27 51°13.848 2°55.625 336.3 9.2 332.8 11.3
2002-01-18 05:33:33 51°13.863 2°55.614 336.8 9.5 332.9 11.3
2002-01-18 05:33:37 51°13.872 2°55.606 338.5 9.6 333.5 11.3
2002-01-18 05:33:41 51°13.882 2°55.599 338.8 9.7 334.8 11.3
2002-01-18 05:33:47 51°13.897 2°55.588 338.2 9.7 334.7 11.4
2002-01-18 05:33:51 51°13.907 2°55.581 338.8 9.8 334.6 11.5
2002-01-18 05:33:56 51°13.919 2°55.572 339 9.9 335 11.5
2002-01-18 05:34:01 51°13.932 2°55.562 338.5 9.9 334.8 11.5
2002-01-18 05:34:06 51°13.944 2°55.553 339.3 9.9 335.2 11.5
2002-01-18 05:34:12 51°13.959 2°55.542 339.5 9.9 335.5 11.5
2002-01-18 05:34:16 51°13.969 2°55.535 339.7 9.9 335.6 11.5
2002-01-18 05:34:21 51°13.982 2°55.526 339.7 9.9 335.7 11.5
2002-01-18 05:34:26 51°13.994 2°55.518 339.3 9.6 335.7 11.5
2002-01-18 05:34:32 51°14.007 2°55.508 339 9.2 335.5 11.6
2002-01-18 05:34:37 51°14.018 2°55.5 339.2 8.7 335.5 11.6
2002-01-18 05:34:42 51°14.028 2°55.492 338.7 8.3 335.3 11.7
2002-01-18 05:34:47 51°14.038 2°55.485 338.7 8 335.3 11.7
2002-01-18 05:34:50 51°14.043 2°55.481 338.7 7.6 334.9 11.8
2002-01-18 05:34:56 51°14.055 2°55.473 338.8 7.4 335.1 11.8
2002-01-18 05:35:01 51°14.064 2°55.466 338.7 7.1 334.9 11.8
2002-01-18 05:35:07 51°14.074 2°55.459 338.3 6.9 335.1 11.8
2002-01-18 05:35:11 51°14.08 2°55.453 337.3 6.7 334.3 11.9
2002-01-18 05:35:17 51°14.09 2°55.446 337 6.7 334 11.9
2002-01-18 05:35:22 51°14.099 2°55.439 337 6.7 333.4 11.9
2002-01-18 05:35:26 51°14.106 2°55.434 337.2 6.8 333.7 11.9
2002-01-18 05:35:32 51°14.116 2°55.425 336.7 7 333.4 11.9
2002-01-18 05:35:36 51°14.123 2°55.419 336.3 7.1 333.3 11.9
2002-01-18 05:35:41 51°14.132 2°55.412 336 7.2 332.9 11.6
2002-01-18 05:35:46 51°14.142 2°55.405 335.8 7.3 332.9 11.9
2002-01-18 05:35:50 51°14.149 2°55.398 335.2 7.4 332.5 11.9
2002-01-18 05:35:56 51°14.16 2°55.389 334 7.5 331.4 11.9
2002-01-18 05:36:01 51°14.169 2°55.381 333.3 7.5 330.6 11.9
2002-01-18 05:36:06 51°14.178 2°55.373 332.7 7.6 330 11.9
2002-01-18 05:36:11 51°14.187 2°55.364 332 7.6 329 11.9
2002-01-18 05:36:16 51°14.196 2°55.355 330.7 7.7 328.3 11.9
2002-01-18 05:36:21 51°14.205 2°55.345 329 7.7 326.5 11.9
2002-01-18 05:36:27 51°14.215 2°55.333 327 7.8 324.6 11.7
2002-01-18 05:36:32 51°14.224 2°55.322 324.8 7.8 322.8 11.9
2002-01-18 05:36:36 51°14.23 2°55.313 322.2 7.9 320.8 11.9
2002-01-18 05:36:41 51°14.238 2°55.301 319.7 7.9 317.8 11.9
2002-01-18 05:36:47 51°14.248 2°55.286 317 7.9 315.8 12
2002-01-18 05:36:52 51°14.255 2°55.273 314.7 8 313.3 12
2002-01-18 05:36:56 51°14.261 2°55.262 313 8 311.6 12
2002-01-18 05:37:01 51°14.268 2°55.248 311.8 8.1 309.7 12.1
2002-01-18 05:37:07 51°14.276 2°55.232 310.8 8.1 308.6 12.1
2002-01-18 05:37:13 51°14.285 2°55.214 311 8.2 307.7 12.1
2002-01-18 05:37:16 51°14.289 2°55.206 310.3 8.2 307.5 12.1
2002-01-18 05:37:21 51°14.296 2°55.191 309.8 8.3 306.6 12.1
2002-01-18 05:37:27 51°14.304 2°55.173 309.8 8.3 306.5 12.1
2002-01-18 05:37:31 51°14.309 2°55.161 310.5 8.3 306.6 12.1
2002-01-18 05:37:37 51°14.318 2°55.144 312 8.4 307.3 12.1
2002-01-18 05:37:41 51°14.324 2°55.133 313 8.4 308.3 12
2002-01-18 05:37:46 51°14.331 2°55.118 313 8.4 308.6 11.7
2002-01-18 05:37:51 51°14.338 2°55.104 312.8 8.4 308.6 11.7
2002-01-18 05:37:56 51°14.346 2°55.089 312.7 8.4 308.4 11.7
2002-01-18 05:38:01 51°14.353 2°55.074 312.3 8.6 308.3 12
2002-01-18 05:38:06 51°14.361 2°55.059 311.8 8.8 308 11.8
2002-01-18 05:38:11 51°14.368 2°55.043 312 9 307.6 11.7
2002-01-18 05:38:16 51°14.377 2°55.027 311.8 9.2 308 11.6
2002-01-18 05:38:21 51°14.385 2°55.01 312 9.5 308.1 11.6
2002-01-18 05:38:26 51°14.393 2°54.993 314.3 9.6 309.1 11.8
2002-01-18 05:38:31 51°14.403 2°54.977 315.2 10 311 11.8
2002-01-18 05:38:36 51°14.412 2°54.96 315.3 10.3 311.7 11.8
2002-01-18 05:38:41 51°14.422 2°54.942 317 10.5 312.8 11.7
2002-01-18 05:38:46 51°14.433 2°54.926 319.2 10.8 314.1 11.7
2002-01-18 05:38:51 51°14.444 2°54.909 321.2 11.1 316.3 11.5
2002-01-18 05:38:56 51°14.456 2°54.892 321.2 11.2 317.3 11.4
2002-01-18 05:39:01 51°14.467 2°54.874 320.8 11.4 317.3 11.4
2002-01-18 05:39:05 51°14.477 2°54.861 321.7 11.6 317.5 11.4
2002-01-18 05:39:11 51°14.491 2°54.84 322.7 11.7 318.5 11.3
2002-01-18 05:39:16 51°14.504 2°54.823 323.3 11.8 319.3 11.4
2002-01-18 05:39:22 51°14.52 2°54.803 324 11.9 320.2 11.3
2002-01-18 05:39:26 51°14.53 2°54.79 324.8 12 321 11.3
2002-01-18 05:39:32 51°14.546 2°54.771 325.3 12 321.7 11.2
2002-01-18 05:39:36 51°14.557 2°54.758 325.8 12 322.2 11.2
2002-01-18 05:39:41 51°14.57 2°54.742 325.7 12 322.5 11.1
2002-01-18 05:39:46 51°14.583 2°54.726 326 12.1 322.6 11
2002-01-18 05:39:52 51°14.599 2°54.706 325.5 12.1 322.5 11
2002-01-18 05:39:56 51°14.61 2°54.693 325.5 12.1 322.8 11
2002-01-18 05:40:01 51°14.623 2°54.677 326.7 12.1 323.2 11.1
2002-01-18 05:40:07 51°14.64 2°54.659 328.5 12.1 324.6 10.9
2002-01-18 05:40:11 51°14.651 2°54.647 328.2 12.1 325.5 10.9
2002-01-18 05:40:16 51°14.665 2°54.632 328.2 12.1 325.7 10.9
2002-01-18 05:40:21 51°14.679 2°54.616 327.5 12.1 325.2 11
2002-01-18 05:40:26 51°14.692 2°54.601 327.3 12.1 325 11.1
2002-01-18 05:40:31 51°14.706 2°54.585 327.2 12.1 324.8 11.2
2002-01-18 05:40:36 51°14.72 2°54.57 327.2 12.1 324.9 11.3
2002-01-18 05:40:41 51°14.734 2°54.555 327.5 12.1 325.1 11.1
2002-01-18 05:40:45 51°14.745 2°54.543 327.5 12.2 325.3 11
2002-01-18 05:40:49 51°14.756 2°54.53 327.5 12.2 325.5 11.1
2002-01-18 05:40:56 51°14.775 2°54.509 327.7 12.2 325.7 11.2
2002-01-18 05:41:01 51°14.789 2°54.494 328 12.1 326.3 11.1
2002-01-18 05:41:06 51°14.803 2°54.48 328.3 12.1 326.7 11.1
2002-01-18 05:41:12 51°14.82 2°54.462 327.8 12 326.7 11.1
2002-01-18 05:41:16 51°14.831 2°54.45 327.5 12 326.5 11
2002-01-18 05:41:21 51°14.845 2°54.436 327.7 12 326.3 11.1
2002-01-18 05:41:26 51°14.858 2°54.421 327.5 11.9 325.9 10.9
2002-01-18 05:41:30 51°14.869 2°54.409 327.7 11.9 326 11
2002-01-18 05:41:36 51°14.886 2°54.391 327.2 12 325.8 10.8
2002-01-18 05:41:41 51°14.9 2°54.377 327.3 12 326 10.7
2002-01-18 05:41:47 51°14.916 2°54.359 327.3 12 325.8 10.7
2002-01-18 05:41:52 51°14.93 2°54.344 327.8 12 326.3 10.4
2002-01-18 05:41:56 51°14.941 2°54.333 328 12 326.5 10.3
2002-01-18 05:42:01 51°14.955 2°54.318 328.7 12 326.9 10.3
2002-01-18 05:42:06 51°14.969 2°54.304 329.8 12 327.7 10.2
2002-01-18 05:42:10 51°14.98 2°54.293 330 12 328.2 10.2
2002-01-18 05:42:16 51°14.998 2°54.277 331 12 328.6 10.2
2002-01-18 05:42:22 51°15.015 2°54.261 331 12.1 329.1 10.2
2002-01-18 05:42:26 51°15.026 2°54.249 331.3 12.1 329.1 10.2
2002-01-18 05:42:31 51°15.041 2°54.236 331.5 12.2 329.2 10.2
2002-01-18 05:42:36 51°15.056 2°54.222 331.7 12.3 329.3 10.2
2002-01-18 05:42:41 51°15.071 2°54.208 331.5 12.4 329 10.3
2002-01-18 05:42:45 51°15.083 2°54.197 331.5 12.4 329.2 10.3
2002-01-18 05:42:51 51°15.1 2°54.18 331.3 12.4 328.7 10.4
2002-01-18 05:42:55 51°15.112 2°54.169 331.5 12.4 329 10.4
2002-01-18 05:43:01 51°15.13 2°54.151 330.8 12.5 328.4 10.5
2002-01-18 05:43:06 51°15.144 2°54.137 331 12.5 328.4 10.6
2002-01-18 05:43:11 51°15.159 2°54.122 330.5 12.5 327.7 10.6
2002-01-18 05:43:16 51°15.174 2°54.107 330.8 12.5 327.9 10.7
2002-01-18 05:43:22 51°15.192 2°54.09 330.7 12.5 327.6 10.7
2002-01-18 05:43:26 51°15.204 2°54.078 330.8 12.6 327.9 10.7
2002-01-18 05:43:31 51°15.219 2°54.063 331 12.8 327.7 10.8
2002-01-18 05:43:37 51°15.237 2°54.045 331.3 12.9 328.1 10.8
2002-01-18 05:43:41 51°15.249 2°54.032 330.7 13 327.7 10.8
2002-01-18 05:43:46 51°15.265 2°54.017 331.3 13.1 327.9 10.9
2002-01-18 05:43:53 51°15.287 2°53.995 331 13.3 327.7 10.9
2002-01-18 05:43:56 51°15.296 2°53.986 331.3 13.4 328 10.9
2002-01-18 05:44:01 51°15.312 2°53.97 330.8 13.5 327.6 11
2002-01-18 05:44:06 51°15.328 2°53.954 331.3 13.5 328.1 11.1
2002-01-18 05:44:12 51°15.347 2°53.934 330.5 13.6 327.2 11.1
2002-01-18 05:44:17 51°15.363 2°53.919 331.3 13.6 328 11.2
2002-01-18 05:44:21 51°15.375 2°53.905 329.8 13.6 327 11.3
2002-01-18 05:44:26 51°15.391 2°53.889 330.5 13.6 327.3 11.3
2002-01-18 05:44:31 51°15.407 2°53.872 329.5 13.7 326.6 11.4
2002-01-18 05:44:36 51°15.423 2°53.856 330.2 13.7 327.5 11.5
2002-01-18 05:44:41 51°15.439 2°53.839 329.7 13.7 326.5 11.5
2002-01-18 05:44:46 51°15.455 2°53.824 330.2 13.7 327.9 11.6
2002-01-18 05:44:51 51°15.471 2°53.806 329.2 13.7 326.3 11.7
2002-01-18 05:44:56 51°15.487 2°53.791 329.8 13.7 327.5 11.8
2002-01-18 05:45:01 51°15.503 2°53.773 329 13.8 325.9 11.8
2002-01-18 05:45:06 51°15.519 2°53.758 330 13.8 327.5 11.8
2002-01-18 05:45:11 51°15.535 2°53.739 328.7 13.8 326 11.9
2002-01-18 05:45:17 51°15.555 2°53.721 330.2 13.8 327.8 12
2002-01-18 05:45:21 51°15.567 2°53.706 328.7 13.8 326 11.9
2002-01-18 05:45:26 51°15.583 2°53.691 330.5 13.8 327.8 12.2
2002-01-18 05:45:31 51°15.599 2°53.673 327.8 13.8 325.6 12.3
2002-01-18 05:45:37 51°15.619 2°53.654 330 13.8 327.4 12.4
2002-01-18 05:45:41 51°15.631 2°53.639 327.8 13.9 325.7 12.4
2002-01-18 05:45:47 51°15.651 2°53.621 330.2 13.9 327.7 12.5
2002-01-18 05:45:53 51°15.67 2°53.6 329 13.9 326.7 12.5
2002-01-18 05:45:57 51°15.684 2°53.588 331 13.9 328.2 12.6
2002-01-18 05:46:01 51°15.696 2°53.574 329.3 13.9 327.3 12.7
2002-01-18 05:46:07 51°15.716 2°53.556 331.2 13.9 328.3 12.7
2002-01-18 05:46:11 51°15.729 2°53.541 329 13.9 327.2 12.8
2002-01-18 05:46:17 51°15.749 2°53.523 331 13.9 327.9 12.9
2002-01-18 05:46:22 51°15.765 2°53.505 328.5 13.9 327.1 12.9
2002-01-18 05:46:26 51°15.778 2°53.492 330.2 13.9 327.1 12.9
2002-01-18 05:46:32 51°15.797 2°53.472 329 13.9 327.1 12.9
2002-01-18 05:46:36 51°15.81 2°53.46 330.8 13.9 328.6 13
2002-01-18 05:46:41 51°15.827 2°53.444 330.2 13.9 328.4 13
2002-01-18 05:46:46 51°15.844 2°53.429 332.2 13.9 329.8 13
2002-01-18 05:46:51 51°15.86 2°53.413 331.2 13.9 329.4 13.1
2002-01-18 05:46:56 51°15.877 2°53.398 332.8 13.9 329.9 13.1
2002-01-18 05:47:01 51°15.894 2°53.383 331.5 13.9 330.1 13.2
2002-01-18 05:47:06 51°15.911 2°53.368 333.2 13.9 330.1 13.2
2002-01-18 05:47:10 51°15.924 2°53.356 331.7 13.9 330.4 13.3
2002-01-18 05:47:16 51°15.944 2°53.337 333.3 13.9 330 13.3
2002-01-18 05:47:21 51°15.961 2°53.322 332 13.9 330.3 13.3
2002-01-18 05:47:26 51°15.978 2°53.307 333.2 13.9 330.2 13.2
2002-01-18 05:47:31 51°15.995 2°53.293 331.8 13.9 330.7 13.4
2002-01-18 05:47:36 51°16.011 2°53.277 332.8 13.9 329.9 13.4
2002-01-18 05:47:41 51°16.029 2°53.262 332 13.9 330.5 13.4
2002-01-18 05:47:46 51°16.045 2°53.247 332.8 13.9 330.6 13.5
2002-01-18 05:47:51 51°16.062 2°53.232 331.7 13.9 330.7 13.6
2002-01-18 05:47:56 51°16.079 2°53.217 332.3 13.9 329.6 13.5
2002-01-18 05:48:01 51°16.096 2°53.202 331.7 13.9 330.8 13.6
2002-01-18 05:48:07 51°16.116 2°53.184 332 13.9 330.1 13.6
2002-01-18 05:48:12 51°16.133 2°53.168 332 14 330.3 13.6
2002-01-18 05:48:16 51°16.146 2°53.155 332 14 329.4 13.7
2002-01-18 05:48:21 51°16.163 2°53.141 332 14 330.5 13.7
2002-01-18 05:48:27 51°16.183 2°53.123 332.5 14 329.9 13.7
2002-01-18 05:48:31 51°16.197 2°53.112 333.3 14 332 13.7
2002-01-18 05:48:36 51°16.214 2°53.096 334 14 331.2 13.7
2002-01-18 05:48:41 51°16.232 2°53.083 334.2 14 333 13.8
2002-01-18 05:48:47 51°16.252 2°53.065 334.7 14 332.5 13.8
2002-01-18 05:48:51 51°16.266 2°53.055 335.3 14 334.1 13.8
2002-01-18 05:48:57 51°16.287 2°53.038 335.3 14 333 13.8
2002-01-18 05:49:01 51°16.301 2°53.029 335.5 14 334.9 13.8
2002-01-18 05:49:07 51°16.322 2°53.011 335.2 14 333.4 13.8
2002-01-18 05:49:11 51°16.336 2°53.002 336.2 14 335.1 13.8
2002-01-18 05:49:17 51°16.357 2°52.985 335.8 14 334 13.8
2002-01-18 05:49:21 51°16.372 2°52.976 336.5 14 335.9 13.7
2002-01-18 05:49:27 51°16.392 2°52.959 336.2 14 335 13.7
2002-01-18 05:49:31 51°16.407 2°52.95 338.5 14 336.8 13.7
2002-01-18 05:49:36 51°16.425 2°52.937 337.8 14 336.2 13.7
2002-01-18 05:49:41 51°16.443 2°52.927 339.2 14 338.4 13.6
2002-01-18 05:49:46 51°16.461 2°52.914 338.5 14 337.4 13.6
2002-01-18 05:49:51 51°16.479 2°52.904 340.2 14.1 339.3 13.5
2002-01-18 05:49:56 51°16.497 2°52.891 339.3 14.1 338 10.3
2002-01-18 05:50:02 51°16.519 2°52.88 340.5 14.1 339.9 9.1
2002-01-18 05:50:07 51°16.537 2°52.867 339.2 14 338.3 -999
2002-01-18 05:50:13 51°16.559 2°52.855 340.7 14.1 339.9 -999
2002-01-18 05:50:17 51°16.573 2°52.844 338.8 14 338.1 8.6
2002-01-18 05:50:23 51°16.596 2°52.832 340 14 339.6 7.2
2002-01-18 05:50:27 51°16.609 2°52.822 339.2 14 337.7 13
2002-01-18 05:50:32 51°16.628 2°52.812 340.5 14 339.4 12.8
2002-01-18 05:50:36 51°16.642 2°52.801 338 14 337.7 12.7
2002-01-18 05:50:41 51°16.66 2°52.791 339.8 14 338.5 12.6
2002-01-18 05:50:45 51°16.674 2°52.781 337.8 14 337.5 12.4
2002-01-18 05:50:51 51°16.696 2°52.767 339.2 13.9 338.1 12.2
2002-01-18 05:50:57 51°16.717 2°52.753 338 13.9 337.9 12.1
2002-01-18 05:51:02 51°16.735 2°52.742 339.5 13.9 338 11.7
2002-01-18 05:51:06 51°16.749 2°52.732 338.8 13.9 338.1 11.2
2002-01-18 05:51:11 51°16.767 2°52.722 339.8 13.9 338.7 10.9
2002-01-18 05:51:17 51°16.789 2°52.707 338.5 13.9 338.5 11.2
2002-01-18 05:51:21 51°16.803 2°52.698 339.5 13.8 338 11.3
2002-01-18 05:51:27 51°16.824 2°52.683 337.8 13.9 337 11.1
2002-01-18 05:51:31 51°16.838 2°52.674 338.8 13.9 336.8 10.9
2002-01-18 05:51:36 51°16.856 2°52.662 338.2 13.9 336.8 10.8
2002-01-18 05:51:41 51°16.873 2°52.649 339.3 13.9 336.1 10.9
2002-01-18 05:51:47 51°16.895 2°52.634 338.3 13.9 336.5 11
2002-01-18 05:51:53 51°16.916 2°52.62 339.3 13.9 336.1 11.1
2002-01-18 05:51:57 51°16.93 2°52.61 339.2 13.9 337.3 11.3
2002-01-18 05:52:01 51°16.944 2°52.6 339.5 13.9 336.4 11.6
2002-01-18 05:52:07 51°16.966 2°52.586 339.3 14 337.4 11.6
2002-01-18 05:52:11 51°16.98 2°52.575 339.5 14 336.3 11.5
2002-01-18 05:52:17 51°17.002 2°52.561 339.2 14 337.7 11.1
2002-01-18 05:52:21 51°17.016 2°52.551 339.7 14 336.9 11
2002-01-18 05:52:27 51°17.037 2°52.538 339.7 14 338.2 10.9
2002-01-18 05:52:31 51°17.051 2°52.527 339 13.9 336.5 11
2002-01-18 05:52:36 51°17.069 2°52.517 339.5 13.9 337.8 11.1
2002-01-18 05:52:41 51°17.087 2°52.503 338.3 13.9 335.5 11
2002-01-18 05:52:47 51°17.108 2°52.489 339.2 13.9 336.9 11.1
2002-01-18 05:52:51 51°17.122 2°52.478 338.5 14 335.6 11.1
2002-01-18 05:52:57 51°17.144 2°52.465 339.5 14 337.5 11.2
2002-01-18 05:53:01 51°17.157 2°52.453 338.2 14 335.7 11.2
2002-01-18 05:53:05 51°17.172 2°52.445 339.5 14 337.5 11.3
2002-01-18 05:53:11 51°17.193 2°52.429 339.2 14 336.3 11.5
2002-01-18 05:53:16 51°17.212 2°52.419 340.8 13.9 338.7 11.4
2002-01-18 05:53:21 51°17.229 2°52.406 339.8 13.9 337.2 11.6
2002-01-18 05:53:27 51°17.251 2°52.394 341.3 13.9 339 11.6
2002-01-18 05:53:31 51°17.265 2°52.384 340.2 13.9 337.7 11.7
2002-01-18 05:53:36 51°17.283 2°52.374 341.5 13.9 339.5 11.7
2002-01-18 05:53:41 51°17.301 2°52.361 340.5 13.9 337.9 11.7
2002-01-18 05:53:47 51°17.323 2°52.35 342 13.9 339.5 11.8
2002-01-18 05:53:52 51°17.341 2°52.338 342.2 13.9 338.8 11.8
2002-01-18 05:53:57 51°17.359 2°52.329 343.3 13.9 340.6 11.8
2002-01-18 05:54:01 51°17.373 2°52.319 343.2 13.9 339.8 11.8
2002-01-18 05:54:07 51°17.396 2°52.309 343.8 13.9 341.8 11.7
2002-01-18 05:54:10 51°17.406 2°52.301 342.8 13.9 339.9 11.7
2002-01-18 05:54:17 51°17.432 2°52.289 344 13.8 341.4 11.8
2002-01-18 05:54:22 51°17.449 2°52.276 342.2 13.8 339 11.8
2002-01-18 05:54:27 51°17.468 2°52.268 343.8 13.9 340.8 11.9
2002-01-18 05:54:31 51°17.482 2°52.257 343 13.9 339.5 11.8
2002-01-18 05:54:37 51°17.504 2°52.247 344 13.9 341.7 11.8
2002-01-18 05:54:42 51°17.522 2°52.235 342.8 13.9 339.7 11.8
2002-01-18 05:54:46 51°17.537 2°52.229 344 13.8 341.3 11.9
2002-01-18 05:54:52 51°17.558 2°52.215 342.7 13.8 339.3 11.9
2002-01-18 05:54:56 51°17.573 2°52.208 344 13.9 341 11.9
2002-01-18 05:55:01 51°17.591 2°52.196 343 13.9 339.4 11.8
2002-01-18 05:55:07 51°17.613 2°52.186 344.2 13.9 341.5 11.8
2002-01-18 05:55:11 51°17.627 2°52.175 342.2 13.9 339.5 11.8
2002-01-18 05:55:16 51°17.646 2°52.167 344.2 14 341.1 11.8
2002-01-18 05:55:21 51°17.664 2°52.154 341.5 14 339 11.8
2002-01-18 05:55:26 51°17.682 2°52.145 343.2 14 340.4 11.8
2002-01-18 05:55:31 51°17.7 2°52.133 341.7 14 339 11.8
2002-01-18 05:55:37 51°17.723 2°52.123 343.5 14 340.8 11.8
2002-01-18 05:55:43 51°17.744 2°52.109 342.3 14 339.6 11.8
2002-01-18 05:55:47 51°17.759 2°52.102 344.5 14 341.4 11.8
2002-01-18 05:55:52 51°17.777 2°52.09 342.8 14 340.4 11.1
2002-01-18 05:55:57 51°17.796 2°52.083 344.5 14 342.4 11.8
2002-01-18 05:56:01 51°17.811 2°52.072 343 14 340.6 11.7
2002-01-18 05:56:05 51°17.826 2°52.067 345 14.1 342.4 11.8
2002-01-18 05:56:11 51°17.848 2°52.053 342.7 14.1 340.4 11.8
2002-01-18 05:56:17 51°17.87 2°52.043 344.8 14.1 341.7 11.8
2002-01-18 05:56:22 51°17.888 2°52.031 342.3 14.1 340.3 11.7
2002-01-18 05:56:27 51°17.907 2°52.022 344.3 14.1 341.2 11.8
2002-01-18 05:56:31 51°17.922 2°52.013 343 14.1 340.4 11.8
2002-01-18 05:56:36 51°17.94 2°52.004 344.8 14.1 341.7 11.8
2002-01-18 05:56:43 51°17.966 2°51.989 343.5 14.1 340.7 11.8
2002-01-18 05:56:47 51°17.981 2°51.983 345.5 14.1 342.6 11.6
2002-01-18 05:56:51 51°17.996 2°51.974 343.5 14.1 341.2 11.9
2002-01-18 05:56:57 51°18.018 2°51.964 345.3 14.1 342.3 11.9
2002-01-18 05:57:01 51°18.033 2°51.954 343.7 14.1 341 11.9
2002-01-18 05:57:07 51°18.056 2°51.945 345.5 14.1 342.4 12
2002-01-18 05:57:13 51°18.077 2°51.931 343.2 14.1 340.9 7.6
2002-01-18 05:57:18 51°18.096 2°51.923 345 14.1 341.8 6.8
2002-01-18 05:57:23 51°18.114 2°51.911 342.8 14.1 340.7 6.6
2002-01-18 05:57:28 51°18.134 2°51.904 345.3 14.1 342.4 -999
2002-01-18 05:57:33 51°18.151 2°51.891 342.5 14.1 340.5 -999
2002-01-18 05:57:37 51°18.166 2°51.885 344.8 14 340.9 5.2
2002-01-18 05:57:42 51°18.184 2°51.873 342.8 14 340.3 5.6
2002-01-18 05:57:48 51°18.207 2°51.863 344.5 14 340.9 6.4
2002-01-18 05:57:53 51°18.225 2°51.851 343 14 340.5 12.5
2002-01-18 05:57:57 51°18.24 2°51.845 345 14 341.9 12.6
2002-01-18 05:58:02 51°18.258 2°51.833 342.3 14 340.2 12.7
2002-01-18 05:58:05 51°18.269 2°51.827 344 14 340.6 12.8
2002-01-18 05:58:10 51°18.288 2°51.818 342.7 14 340.1 12.8
2002-01-18 05:58:15 51°18.306 2°51.807 344.8 14 340.7 12.9
2002-01-18 05:58:21 51°18.328 2°51.795 342.8 14 340.5 13
2002-01-18 05:58:27 51°18.35 2°51.783 344.8 14 340.6 13.1
2002-01-18 05:58:33 51°18.372 2°51.77 343 14 340.9 13.2
2002-01-18 05:58:36 51°18.383 2°51.764 344.3 14 340.8 13.3
2002-01-18 05:58:41 51°18.401 2°51.754 343.3 14 340.6 13.4
2002-01-18 05:58:47 51°18.423 2°51.742 344 14 339.9 13.5
2002-01-18 05:58:51 51°18.438 2°51.734 343.2 14 340.9 13.6
2002-01-18 05:58:57 51°18.46 2°51.722 344.5 14 340.4 13.7
2002-01-18 05:59:02 51°18.478 2°51.712 343.7 14 341.7 13.8
2002-01-18 05:59:07 51°18.497 2°51.701 344.2 14 340.7 14
2002-01-18 05:59:11 51°18.511 2°51.694 343.7 14 341.4 14
2002-01-18 05:59:16 51°18.529 2°51.683 344.5 13.9 340.5 14.1
2002-01-18 05:59:21 51°18.548 2°51.675 344 13.9 341.8 14.2
2002-01-18 05:59:27 51°18.57 2°51.661 343.2 13.9 340 14.4
2002-01-18 05:59:31 51°18.585 2°51.655 345 14 342.2 14.5
2002-01-18 05:59:36 51°18.603 2°51.643 344.3 14 340.9 14.6
2002-01-18 05:59:41 51°18.622 2°51.637 346.3 14 343.6 14.7
2002-01-18 05:59:47 51°18.644 2°51.624 345.2 14 342.1 14.8
2002-01-18 05:59:51 51°18.659 2°51.619 347.2 13.9 344.8 14.9
2002-01-18 05:59:57 51°18.681 2°51.607 345.8 13.9 343.2 15
2002-01-18 06:00:01 51°18.696 2°51.603 348.2 13.9 345.6 15.1
2002-01-18 06:00:07 51°18.718 2°51.59 345.7 13.9 343.6 15.1
2002-01-18 06:00:11 51°18.733 2°51.585 347.5 13.8 345 15.3
2002-01-18 06:00:18 51°18.758 2°51.572 345.3 13.8 343 15.3
2002-01-18 06:00:22 51°18.773 2°51.567 347.2 13.9 344.3 15.4
2002-01-18 06:00:25 51°18.784 2°51.561 345.7 13.9 342.9 15.5
2002-01-18 06:00:31 51°18.806 2°51.551 347.5 13.9 344.5 15.6
2002-01-18 06:00:36 51°18.824 2°51.541 344.8 13.9 342.9 15.6
2002-01-18 06:00:42 51°18.847 2°51.532 346.3 13.8 343.8 15.7
2002-01-18 06:00:45 51°18.857 2°51.525 344.8 13.8 342.1 15.7
2002-01-18 06:00:53 51°18.887 2°51.512 346.7 13.8 343.6 15.8
2002-01-18 06:00:57 51°18.901 2°51.503 345 13.8 342.7 16
2002-01-18 06:01:01 51°18.916 2°51.497 347.2 13.8 343.7 16
2002-01-18 06:01:07 51°18.938 2°51.485 345.3 13.8 342.5 16.2
2002-01-18 06:01:11 51°18.952 2°51.479 347.3 13.8 343.7 16.1
2002-01-18 06:01:17 51°18.974 2°51.467 345 13.8 343.2 16
2002-01-18 06:01:21 51°18.989 2°51.461 346.5 13.9 342.8 15.8
2002-01-18 06:01:26 51°19.007 2°51.451 345 13.8 342.5 16
2002-01-18 06:01:33 51°19.033 2°51.44 346.2 13.8 342.6 16.3
2002-01-18 06:01:37 51°19.047 2°51.431 345.2 13.9 342.5 16.4
2002-01-18 06:01:41 51°19.062 2°51.424 346.7 13.9 342.6 16.6
2002-01-18 06:01:46 51°19.081 2°51.415 345.2 14 343.1 16.5
2002-01-18 06:01:51 51°19.099 2°51.405 347.2 14 342.9 16.5
2002-01-18 06:01:57 51°19.122 2°51.394 345.5 14 343.5 16.4
2002-01-18 06:02:01 51°19.137 2°51.387 346.8 14.1 342.9 16.5
2002-01-18 06:02:07 51°19.159 2°51.377 345.8 14.1 343.1 16.5
2002-01-18 06:02:12 51°19.178 2°51.368 346.8 14.1 342.8 16.5
2002-01-18 06:02:17 51°19.196 2°51.358 345.3 14.1 343.8 16.4
2002-01-18 06:02:22 51°19.215 2°51.349 346 14.1 342.7 16.4
2002-01-18 06:02:26 51°19.23 2°51.342 345.5 14.2 343.1 16.4
2002-01-18 06:02:32 51°19.253 2°51.331 345.7 14.3 342.3 16.5
2002-01-18 06:02:37 51°19.271 2°51.322 345.3 14.3 343.7 16.5
2002-01-18 06:02:41 51°19.286 2°51.314 346 14.2 342.7 16.5
2002-01-18 06:02:47 51°19.309 2°51.305 346 14.2 344.1 16.5
2002-01-18 06:02:51 51°19.324 2°51.296 345.5 14.2 342.8 16.5
2002-01-18 06:02:57 51°19.347 2°51.287 346 14.2 344.5 16.5
2002-01-18 06:03:02 51°19.365 2°51.277 345.7 14.2 342.8 16.5
2002-01-18 06:03:06 51°19.381 2°51.272 346 14.2 344.6 16.5
2002-01-18 06:03:11 51°19.399 2°51.26 344.7 14.2 342.4 16.4
2002-01-18 06:03:16 51°19.419 2°51.254 346.2 14.2 344.3 16.4
2002-01-18 06:03:21 51°19.437 2°51.243 344 14.2 342.2 16.4
2002-01-18 06:03:26 51°19.456 2°51.236 346.3 14.1 344 16.3
2002-01-18 06:03:31 51°19.475 2°51.225 344.2 14.1 342.3 16.3
2002-01-18 06:03:36 51°19.494 2°51.218 346.5 14.1 343.9 16.3
2002-01-18 06:03:41 51°19.512 2°51.207 345 14.1 343 16.2
2002-01-18 06:03:46 51°19.531 2°51.201 348 14.1 345.2 16.1
2002-01-18 06:03:53 51°19.557 2°51.188 346.8 14.1 344.5 16.1
2002-01-18 06:03:56 51°19.569 2°51.185 349.2 14.1 345.8 16
2002-01-18 06:04:02 51°19.591 2°51.175 348.5 14.1 345.9 16
2002-01-18 06:04:07 51°19.611 2°51.17 350.5 14 346.9 15.8
2002-01-18 06:04:11 51°19.626 2°51.163 349.3 14.1 346.8 15.8
2002-01-18 06:04:17 51°19.649 2°51.157 351.7 14.1 348.3 15.5
2002-01-18 06:04:21 51°19.664 2°51.151 349.8 14.1 347.6 15.3
2002-01-18 06:04:27 51°19.687 2°51.144 351.7 14 347.7 15.2
2002-01-18 06:04:31 51°19.702 2°51.138 349.7 14 347.6 14.9
2002-01-18 06:04:37 51°19.725 2°51.13 351 14 347.1 14.7
2002-01-18 06:04:41 51°19.74 2°51.124 348.7 14 347.1 14.3
2002-01-18 06:04:47 51°19.762 2°51.116 349.5 14 345.9 13.9
2002-01-18 06:04:51 51°19.777 2°51.11 349.2 14 346.7 13.6
2002-01-18 06:04:57 51°19.8 2°51.101 349.2 14 346.1 13.3
2002-01-18 06:05:03 51°19.822 2°51.091 349 14 346.7 13.3
2002-01-18 06:05:07 51°19.837 2°51.086 349.2 14 346 13.3
2002-01-18 06:05:12 51°19.856 2°51.079 348.2 14 346.4 13.3
2002-01-18 06:05:17 51°19.875 2°51.071 348.5 14 345.1 13.5
2002-01-18 06:05:22 51°19.894 2°51.064 348.7 14 346.2 13.4
2002-01-18 06:05:27 51°19.913 2°51.056 349 14 344.8 13.6
2002-01-18 06:05:32 51°19.932 2°51.048 348 14 346.2 13.4
2002-01-18 06:05:37 51°19.95 2°51.04 348.7 14 344.6 13.4
2002-01-18 06:05:42 51°19.969 2°51.033 348.7 14 346.5 13.5
2002-01-18 06:05:47 51°19.988 2°51.024 347.5 14 344.6 13.7
2002-01-18 06:05:52 51°20.007 2°51.018 349.2 14 346.6 13.9
2002-01-18 06:05:57 51°20.025 2°51.01 348.3 14 345 14.2
2002-01-18 06:06:02 51°20.045 2°51.003 349.3 14 346.9 14.4
2002-01-18 06:06:07 51°20.063 2°50.994 348.3 14 345.2 14.7
2002-01-18 06:06:12 51°20.082 2°50.989 350.2 14 347.3 14.8
2002-01-18 06:06:17 51°20.101 2°50.98 348.7 14 345.6 15
2002-01-18 06:06:22 51°20.12 2°50.975 350 14 347.5 15.2
2002-01-18 06:06:27 51°20.139 2°50.966 348.5 14 346.1 15.4
2002-01-18 06:06:32 51°20.158 2°50.961 350.8 14 347.7 15.5
2002-01-18 06:06:37 51°20.177 2°50.952 348 14 345.8 15.6
2002-01-18 06:06:42 51°20.196 2°50.946 349.8 14 347.1 15.6
2002-01-18 06:06:46 51°20.211 2°50.939 348.2 14 346.1 15.6
2002-01-18 06:06:52 51°20.234 2°50.932 350.3 14 347.4 15.6
2002-01-18 06:06:57 51°20.252 2°50.923 348 14 346.3 15.8
2002-01-18 06:07:02 51°20.271 2°50.918 350 14 347.3 15.5
2002-01-18 06:07:07 51°20.29 2°50.908 347.5 14 346.4 15.6
2002-01-18 06:07:13 51°20.313 2°50.901 349.3 14 346.8 15.5
2002-01-18 06:07:17 51°20.327 2°50.893 347.2 13.9 345.9 15.4
2002-01-18 06:07:21 51°20.342 2°50.889 349.5 13.9 346.4 15.3
2002-01-18 06:07:26 51°20.361 2°50.88 347.3 14 345.9 15.3
2002-01-18 06:07:31 51°20.38 2°50.873 349 13.9 346.1 15.5
2002-01-18 06:07:37 51°20.402 2°50.864 347.3 13.9 345.6 15.8
2002-01-18 06:07:42 51°20.421 2°50.856 347.8 14 345.5 16.2
2002-01-18 06:07:46 51°20.436 2°50.85 348.2 14 346.2 16.6
2002-01-18 06:07:53 51°20.463 2°50.841 349.7 14 346.6 16.6
2002-01-18 06:07:57 51°20.478 2°50.835 348.7 14 347.5 17
2002-01-18 06:08:01 51°20.493 2°50.829 349.3 14 346.6 17.4
2002-01-18 06:08:06 51°20.512 2°50.823 348.8 14 347.6 17.9
2002-01-18 06:08:11 51°20.53 2°50.814 348.5 14 346 18.1
2002-01-18 06:08:17 51°20.553 2°50.807 349.2 14 347.6 18.4
2002-01-18 06:08:22 51°20.572 2°50.799 349.2 14 346 18.7
2002-01-18 06:08:26 51°20.587 2°50.795 349.5 14 347.5 19
2002-01-18 06:08:31 51°20.606 2°50.785 348 13.9 345.5 19.4
2002-01-18 06:08:36 51°20.625 2°50.78 349.5 13.9 346.7 19.6
2002-01-18 06:08:41 51°20.643 2°50.771 348 13.9 345.5 19.9
2002-01-18 06:08:47 51°20.666 2°50.764 349.5 13.9 347 20.1
2002-01-18 06:08:51 51°20.681 2°50.756 348.5 13.9 345.6 20.4
2002-01-18 06:08:57 51°20.703 2°50.75 350 13.9 347.1 20.7
2002-01-18 06:09:01 51°20.718 2°50.742 348.2 13.9 345.8 20.9
2002-01-18 06:09:05 51°20.733 2°50.738 349.8 13.9 347.2 21.2
2002-01-18 06:09:13 51°20.763 2°50.725 348.2 13.9 345.6 21.5
2002-01-18 06:09:17 51°20.778 2°50.721 350 13.9 346.5 21.8
2002-01-18 06:09:22 51°20.797 2°50.712 347.8 13.8 345.8 21.9
2002-01-18 06:09:27 51°20.816 2°50.707 350.5 13.9 347.1 22.1
2002-01-18 06:09:31 51°20.831 2°50.7 348.7 13.9 346.9 22.4
2002-01-18 06:09:37 51°20.853 2°50.693 350.5 13.9 346.9 22.6
2002-01-18 06:09:42 51°20.872 2°50.685 348.2 13.9 346.7 22.8
2002-01-18 06:09:47 51°20.89 2°50.675 344.7 13.9 343.7 23
2002-01-18 06:09:52 51°20.908 2°50.663 340.3 13.8 339.9 23.3
2002-01-18 06:09:57 51°20.925 2°50.65 336 13.8 336.1 23.5
2002-01-18 06:10:02 51°20.942 2°50.636 332 13.7 332.6 23.8
2002-01-18 06:10:07 51°20.957 2°50.619 327.3 13.6 328.6 23.9
2002-01-18 06:10:11 51°20.969 2°50.605 322.5 13.6 324.8 24.1
2002-01-18 06:10:17 51°20.987 2°50.581 320.2 13.5 321 24.1
2002-01-18 06:10:22 51°21.001 2°50.561 317.2 13.5 318.9 24.4
2002-01-18 06:10:27 51°21.014 2°50.54 315.5 13.5 316.3 24.4
2002-01-18 06:10:33 51°21.03 2°50.514 313 13.6 315.2 24.5
2002-01-18 06:10:38 51°21.042 2°50.491 311.7 13.5 312.3 24.6
2002-01-18 06:10:43 51°21.054 2°50.469 311.2 13.6 312.4 24.5
2002-01-18 06:10:47 51°21.064 2°50.45 309.8 13.6 310 24.5
2002-01-18 06:10:53 51°21.079 2°50.423 309.5 13.6 311.2 24.6
2002-01-18 06:10:57 51°21.088 2°50.404 308.7 13.6 309.2 24.6
2002-01-18 06:11:02 51°21.101 2°50.381 308.7 13.7 310.1 24.7
2002-01-18 06:11:06 51°21.109 2°50.361 308.2 13.7 308.4 24.6
2002-01-18 06:11:12 51°21.125 2°50.334 308 13.7 309.6 24.6
2002-01-18 06:11:17 51°21.136 2°50.31 307.8 13.6 307.9 24.6
2002-01-18 06:11:22 51°21.148 2°50.287 307.5 13.6 309.6 24.6
2002-01-18 06:11:27 51°21.16 2°50.263 307.5 13.6 308 24.7
2002-01-18 06:11:32 51°21.172 2°50.24 308.2 13.6 309.4 24.6
2002-01-18 06:11:37 51°21.183 2°50.216 307.7 13.5 307.8 24.6
2002-01-18 06:11:42 51°21.195 2°50.193 307.3 13.5 308.6 24.6
2002-01-18 06:11:47 51°21.206 2°50.168 306.8 13.5 306.6 24.5
2002-01-18 06:11:51 51°21.216 2°50.15 307.3 13.5 307.6 24.6
2002-01-18 06:11:57 51°21.228 2°50.12 306.8 13.6 306.3 24.4
2002-01-18 06:12:02 51°21.241 2°50.097 308.8 13.6 307.8 24.4
2002-01-18 06:12:07 51°21.252 2°50.073 309 13.6 307.6 24.3
2002-01-18 06:12:12 51°21.265 2°50.051 310.8 13.6 309.9 24.3
2002-01-18 06:12:17 51°21.276 2°50.027 310.3 13.6 309.6 24.2
2002-01-18 06:12:22 51°21.289 2°50.004 311.3 13.6 310.3 24.1
2002-01-18 06:12:27 51°21.301 2°49.981 311.3 13.7 310.1 24.1
2002-01-18 06:12:32 51°21.313 2°49.958 312 13.7 310.6 24
2002-01-18 06:12:37 51°21.325 2°49.935 311.5 13.7 310.6 23.9
2002-01-18 06:12:42 51°21.338 2°49.912 312 13.7 310.3 23.8
2002-01-18 06:12:47 51°21.349 2°49.888 310.8 13.7 309.3 23.7
2002-01-18 06:12:52 51°21.362 2°49.865 312.2 13.7 309.7 23.6
2002-01-18 06:12:57 51°21.374 2°49.841 311.2 13.8 309.9 23.5
2002-01-18 06:13:02 51°21.386 2°49.818 312.3 13.8 309.8 23.5
2002-01-18 06:13:07 51°21.399 2°49.795 311.7 13.8 310.6 23.3
2002-01-18 06:13:12 51°21.411 2°49.772 312.2 13.8 310.5 23.2
2002-01-18 06:13:17 51°21.424 2°49.749 312 13.8 311.2 23.1
2002-01-18 06:13:22 51°21.437 2°49.726 313 13.8 311.3 23.1
2002-01-18 06:13:26 51°21.447 2°49.708 313 13.8 312.1 23.1
2002-01-18 06:13:33 51°21.465 2°49.677 314 13.8 312.1 23.1
2002-01-18 06:13:37 51°21.475 2°49.658 313.5 13.8 312.6 23
2002-01-18 06:13:43 51°21.491 2°49.632 315 13.8 313 22.9
2002-01-18 06:13:47 51°21.502 2°49.615 316.7 13.8 314.9 23
2002-01-18 06:13:53 51°21.518 2°49.591 317.7 13.8 315.7 23.1
2002-01-18 06:13:57 51°21.53 2°49.574 318.8 13.8 317.3 23.1
2002-01-18 06:14:01 51°21.541 2°49.557 320 13.8 317.7 23.1
2002-01-18 06:14:07 51°21.559 2°49.535 321.8 13.8 319.8 23.4
2002-01-18 06:14:11 51°21.571 2°49.52 323.8 13.8 321.2 23.2
2002-01-18 06:14:17 51°21.589 2°49.498 325 13.8 323.1 23.6
2002-01-18 06:14:21 51°21.602 2°49.484 325.7 13.8 324.5 23.7
2002-01-18 06:14:27 51°21.621 2°49.465 327.8 13.8 326 23.7
2002-01-18 06:14:31 51°21.634 2°49.452 330.2 13.8 328 23.6
2002-01-18 06:14:36 51°21.651 2°49.437 331.2 13.8 329.4 23.8
2002-01-18 06:14:41 51°21.668 2°49.423 333.8 13.8 331.8 23.8
2002-01-18 06:14:47 51°21.688 2°49.405 332.2 13.7 331.8 23.9
2002-01-18 06:14:53 51°21.708 2°49.39 334.2 13.7 332.9 24
2002-01-18 06:14:56 51°21.719 2°49.381 332.8 13.7 333.2 24
2002-01-18 06:15:01 51°21.735 2°49.367 334.8 13.7 333.7 24.1
2002-01-18 06:15:07 51°21.756 2°49.352 335.5 13.7 335 24.2
2002-01-18 06:15:11 51°21.77 2°49.342 337.3 13.8 335.3 24.4
2002-01-18 06:15:17 51°21.791 2°49.327 337.8 13.8 336.7 24.4
2002-01-18 06:15:21 51°21.805 2°49.318 339.7 13.8 337.4 24.4
2002-01-18 06:15:25 51°21.82 2°49.311 340.2 13.8 339.9 24.4
2002-01-18 06:15:33 51°21.849 2°49.293 340.5 13.8 339.2 24.4
2002-01-18 06:15:37 51°21.863 2°49.285 340.8 13.8 340.7 24.6
2002-01-18 06:15:41 51°21.877 2°49.275 340.2 13.8 339.1 24.5
2002-01-18 06:15:47 51°21.899 2°49.264 340.8 13.8 340.9 24.4
2002-01-18 06:15:53 51°21.92 2°49.251 339.7 13.8 338.9 24.5
2002-01-18 06:15:57 51°21.935 2°49.244 341 13.8 341.1 24.7
2002-01-18 06:16:01 51°21.949 2°49.233 339.2 13.7 338.5 24.6
2002-01-18 06:16:05 51°21.963 2°49.227 340.5 13.7 340.4 24.6
2002-01-18 06:16:11 51°21.984 2°49.211 337.7 13.7 337.5 24.6
2002-01-18 06:16:17 51°22.006 2°49.2 341 13.8 339.9 24.5
2002-01-18 06:16:22 51°22.023 2°49.188 339 13.8 339 24.4
2002-01-18 06:16:27 51°22.042 2°49.179 341.3 13.7 340.6 24.5
2002-01-18 06:16:32 51°22.06 2°49.168 341.2 13.8 340.9 24.5
2002-01-18 06:16:37 51°22.078 2°49.161 344 13.8 343.3 24.5
2002-01-18 06:16:42 51°22.096 2°49.151 343.2 13.8 343.1 24.5
2002-01-18 06:16:47 51°22.115 2°49.144 345.5 13.8 343.6 24.4
2002-01-18 06:16:53 51°22.137 2°49.132 343.3 13.8 343.7 24.6
2002-01-18 06:16:57 51°22.152 2°49.127 344 13.8 343.2 24.5
2002-01-18 06:17:02 51°22.17 2°49.117 343.5 13.8 343.2 24.5
2002-01-18 06:17:07 51°22.189 2°49.109 344.5 13.8 343.2 24.5
2002-01-18 06:17:11 51°22.203 2°49.102 344 13.9 343.6 24.6
2002-01-18 06:17:17 51°22.225 2°49.092 344.7 13.9 343.2 24.4
2002-01-18 06:17:21 51°22.24 2°49.086 345.2 13.9 344.8 23.7
2002-01-18 06:17:27 51°22.263 2°49.075 344.8 13.8 344.3 23
2002-01-18 06:17:33 51°22.285 2°49.065 344.5 13.9 344.9 22.1
2002-01-18 06:17:37 51°22.3 2°49.059 345 13.8 344.3 22.4
2002-01-18 06:17:42 51°22.318 2°49.05 343.5 13.9 344.3 23.9
2002-01-18 06:17:47 51°22.336 2°49.042 344.2 13.8 343.4 24.3
2002-01-18 06:17:51 51°22.351 2°49.035 343.2 13.9 343.5 24.1
2002-01-18 06:17:57 51°22.373 2°49.024 343.2 13.8 342.3 24.1
2002-01-18 06:18:02 51°22.391 2°49.014 342.3 13.8 342.9 23.7
2002-01-18 06:18:07 51°22.41 2°49.005 342.7 13.8 341.9 22.8
2002-01-18 06:18:11 51°22.425 2°48.999 341.8 13.8 342.7 22.1
2002-01-18 06:18:17 51°22.446 2°48.986 341.8 13.8 341.1 21.2
2002-01-18 06:18:21 51°22.461 2°48.979 341.8 13.8 342.4 20.5
2002-01-18 06:18:26 51°22.479 2°48.968 341.8 13.8 341.1 19.8
2002-01-18 06:18:31 51°22.497 2°48.961 343.8 13.8 343.5 19.5
2002-01-18 06:18:37 51°22.519 2°48.95 344.2 13.9 343.3 19
2002-01-18 06:18:42 51°22.538 2°48.944 346.8 13.9 345.9 18
2002-01-18 06:18:46 51°22.553 2°48.938 347.5 13.9 346.7 19.7
2002-01-18 06:18:52 51°22.576 2°48.931 349.7 14 348.5 19.3
2002-01-18 06:18:55 51°22.588 2°48.927 348.8 14 348.5 18.4
2002-01-18 06:19:01 51°22.61 2°48.92 350.7 14 349.4 17.1
2002-01-18 06:19:06 51°22.629 2°48.913 350 14 349 16.7
2002-01-18 06:19:12 51°22.653 2°48.908 351.7 14 349.9 17.7
2002-01-18 06:19:16 51°22.668 2°48.902 349.8 14 349.2 16.9
2002-01-18 06:19:22 51°22.691 2°48.897 352.5 14 350 15.4
2002-01-18 06:19:27 51°22.71 2°48.89 351 14.1 349.6 15.1
2002-01-18 06:19:32 51°22.729 2°48.887 353.2 14.1 351.3 16.7
2002-01-18 06:19:37 51°22.749 2°48.88 352.3 14.1 351.1 16.4
2002-01-18 06:19:42 51°22.768 2°48.878 354.2 14.1 352.6 15.4
2002-01-18 06:19:47 51°22.788 2°48.872 353.3 14.2 352.4 14.6
2002-01-18 06:19:51 51°22.803 2°48.87 355.2 14.2 353.6 16.6
2002-01-18 06:19:56 51°22.823 2°48.866 352.5 14.2 352.4 18.2
2002-01-18 06:20:02 51°22.847 2°48.861 354 14.3 352.3 19.1
2002-01-18 06:20:06 51°22.862 2°48.857 351.8 14.3 351.7 19.1
2002-01-18 06:20:10 51°22.878 2°48.852 353 14.2 351.1 19.1
2002-01-18 06:20:16 51°22.901 2°48.847 351 14.2 351.7 19.1
2002-01-18 06:20:21 51°22.92 2°48.84 351.5 14.2 349.8 19.2
2002-01-18 06:20:26 51°22.94 2°48.836 350.8 14.2 350.3 19.5
2002-01-18 06:20:31 51°22.959 2°48.83 351.8 14.2 349.6 19.9
2002-01-18 06:20:37 51°22.983 2°48.825 352 14.2 351.4 20.1
2002-01-18 06:20:41 51°22.998 2°48.818 351 14.2 349.3 20.4
2002-01-18 06:20:47 51°23.021 2°48.814 352.3 14.2 351.2 20.6
2002-01-18 06:20:51 51°23.037 2°48.807 350.5 14.2 348.9 20.4
2002-01-18 06:20:57 51°23.06 2°48.803 352.2 14.2 350.8 19.3
2002-01-18 06:21:01 51°23.075 2°48.796 350 14.2 348.4 18.7
2002-01-18 06:21:06 51°23.095 2°48.793 352 14.2 350.4 19.8
2002-01-18 06:21:12 51°23.118 2°48.784 350.7 14.1 348.7 20.5
2002-01-18 06:21:18 51°23.141 2°48.779 352.3 14.2 350.6 20.9
2002-01-18 06:21:21 51°23.153 2°48.774 352.3 14.2 349.5 21.2
2002-01-18 06:21:26 51°23.172 2°48.771 353.5 14.2 351.7 21.4
2002-01-18 06:21:31 51°23.192 2°48.764 352.3 14.2 349.8 21.8
2002-01-18 06:21:36 51°23.211 2°48.761 354.2 14.2 351.7 21.9
2002-01-18 06:21:41 51°23.23 2°48.753 351 14.2 349.2 22.2
2002-01-18 06:21:46 51°23.25 2°48.75 353.2 14.2 350.6 21.1
2002-01-18 06:21:51 51°23.269 2°48.743 351.5 14.2 349.6 21.4
2002-01-18 06:21:57 51°23.292 2°48.738 353.3 14.2 349.7 22.1
2002-01-18 06:22:01 51°23.308 2°48.732 351.2 14.2 349.7 22.5
2002-01-18 06:22:06 51°23.327 2°48.726 352.3 14.2 349.5 22.7
2002-01-18 06:22:11 51°23.346 2°48.721 351.3 14.2 349.4 22.7
2002-01-18 06:22:16 51°23.366 2°48.714 352.5 14.2 348.5 23
2002-01-18 06:22:21 51°23.385 2°48.71 351.7 14.1 350 22.9
2002-01-18 06:22:26 51°23.404 2°48.702 351.8 14.1 348.8 22.7
2002-01-18 06:22:31 51°23.424 2°48.698 352.7 14.1 350.3 22.6
2002-01-18 06:22:36 51°23.443 2°48.692 353.3 14.1 350 22.8
2002-01-18 06:22:41 51°23.462 2°48.689 355.3 14.1 352 22.8
2002-01-18 06:22:46 51°23.482 2°48.686 357.5 14.1 353.6 22.6
2002-01-18 06:22:52 51°23.505 2°48.682 357.7 14.1 354.5 22
2002-01-18 06:22:56 51°23.521 2°48.682   14.1 355.9 20.7
2002-01-18 06:23:01 51°23.54 2°48.679 359 14.1 356.3 22.3
2002-01-18 06:23:06 51°23.56 2°48.678 1.2 14.1 357 23.1
2002-01-18 06:23:11 51°23.58 2°48.676 359.3 14.2 356.7 23.4
2002-01-18 06:23:16 51°23.599 2°48.676 1.2 14.2 358 23.7
2002-01-18 06:23:21 51°23.619 2°48.673 359 14.2 356.7 23.8
2002-01-18 06:23:28 51°23.646 2°48.672 0.2 14.2 356.5 23.7
2002-01-18 06:23:30 51°23.654 2°48.671 359 14.2 356.7 24
2002-01-18 06:23:37 51°23.682 2°48.667 359.7 14.2 356 23.6
2002-01-18 06:23:41 51°23.697 2°48.666 358.5 14.2 356.8 22
2002-01-18 06:23:46 51°23.717 2°48.662 358.3 14.2 355 23.2
2002-01-18 06:23:50 51°23.733 2°48.663 358.7 14.1 356.6 23.6
2002-01-18 06:23:56 51°23.756 2°48.657 357.5 14.1 354.7 23.7
2002-01-18 06:24:01 51°23.775 2°48.657 358.3 14 356.1 24.1
2002-01-18 06:24:07 51°23.799 2°48.652 357.2 14.1 354.4 24
2002-01-18 06:24:12 51°23.818 2°48.651 358.5 14.1 355.9 24.1
2002-01-18 06:24:16 51°23.834 2°48.647 357.3 14.1 354.5 23.7
2002-01-18 06:24:21 51°23.853 2°48.646 358.8 14.1 356.1 24
2002-01-18 06:24:26 51°23.872 2°48.642 356.3 14.1 354 23.9
2002-01-18 06:24:30 51°23.888 2°48.64 358.8 14.1 355.5 24.1
2002-01-18 06:24:35 51°23.908 2°48.637 356 14.1 354.7 23.9
2002-01-18 06:24:41 51°23.931 2°48.633 357.5 14.2 354.2 23.5
2002-01-18 06:24:46 51°23.951 2°48.631 357.2 14.2 355 22.2
2002-01-18 06:24:50 51°23.966 2°48.627 357.8 14.2 354.3 23.1
2002-01-18 06:24:56 51°23.99 2°48.626 358 14.2 356.2 23.4
2002-01-18 06:25:01 51°24.009 2°48.621 357.2 14.2 353.9 23.9
2002-01-18 06:25:07 51°24.033 2°48.62 357.8 14.2 355.5 24
2002-01-18 06:25:12 51°24.053 2°48.615 357.2 14.2 354.2 23.6
2002-01-18 06:25:16 51°24.068 2°48.615 358.3 14.2 355.6 23.6
2002-01-18 06:25:21 51°24.088 2°48.611 357.8 14.2 354.8 23.1
2002-01-18 06:25:26 51°24.108 2°48.609 358.3 14.2 355.8 22.7
2002-01-18 06:25:31 51°24.127 2°48.605 357.7 14.2 354.5 22.9
2002-01-18 06:25:36 51°24.147 2°48.605 358.8 14.2 356.3 22.5
2002-01-18 06:25:42 51°24.17 2°48.599 356.5 14.2 353.8 22.5
2002-01-18 06:25:46 51°24.186 2°48.6 359.3 14.1 356.4 22.2
2002-01-18 06:25:51 51°24.205 2°48.594 356.2 14.1 353.7 22.5
2002-01-18 06:25:56 51°24.225 2°48.593 358.7 14.2 355.7 22.2
2002-01-18 06:26:01 51°24.244 2°48.588 356.2 14.2 353.9 23.3
2002-01-18 06:26:06 51°24.264 2°48.587 358.3 14.2 355 23.5
2002-01-18 06:26:11 51°24.283 2°48.583 356.8 14.2 354.1 22.9
2002-01-18 06:26:17 51°24.307 2°48.581 358.8 14.2 355.1 23.3
2002-01-18 06:26:21 51°24.323 2°48.578 357 14.2 354.8 22.8
2002-01-18 06:26:26 51°24.342 2°48.575 358.7 14.2 354.6 22.8
2002-01-18 06:26:31 51°24.362 2°48.573 358 14.2 355.7 23.5
2002-01-18 06:26:36 51°24.381 2°48.57 358.7 14.2 354.7 24.1
2002-01-18 06:26:41 51°24.401 2°48.569 357.8 14.2 356.1 23.9
2002-01-18 06:26:45 51°24.417 2°48.565 358.3 14.2 355.2 24.1
2002-01-18 06:26:51 51°24.441 2°48.564 358.3 14.3 356.1 24.2
2002-01-18 06:26:58 51°24.468 2°48.561 359 14.2 355.2 24.2
2002-01-18 06:27:02 51°24.484 2°48.559 358.5 14.2 356.7 23.6
2002-01-18 06:27:06 51°24.499 2°48.556 359 14.2 355.4 23.3
2002-01-18 06:27:11 51°24.519 2°48.557 359.2 14.3 357.3 23
2002-01-18 06:27:16 51°24.539 2°48.552 358.5 14.2 355.3 22.8
2002-01-18 06:27:21 51°24.559 2°48.552 359.3 14.3 357.3 23
2002-01-18 06:27:26 51°24.578 2°48.547 356.8 14.2 354.4 23.5
2002-01-18 06:27:32 51°24.602 2°48.546 359 14.2 356.5 23.7
2002-01-18 06:27:37 51°24.621 2°48.542 357 14.2 354.7 23.8
2002-01-18 06:27:41 51°24.637 2°48.542 359 14.2 356.6 23.9
2002-01-18 06:27:47 51°24.661 2°48.537 357.2 14.3 355 23.9
2002-01-18 06:27:52 51°24.681 2°48.537 359.7 14.3 356.8 24.4
2002-01-18 06:27:56 51°24.696 2°48.532 356.8 14.3 355 24.2
2002-01-18 06:28:01 51°24.716 2°48.532 359.3 14.2 356.5 23.2
2002-01-18 06:28:07 51°24.74 2°48.527 357.5 14.2 355.2 24.8
2002-01-18 06:28:12 51°24.759 2°48.527 359.8 14.2 356.5 26.3
2002-01-18 06:28:17 51°24.779 2°48.523 358.7 14.2 356.3 26.5
2002-01-18 06:28:22 51°24.799 2°48.523 0.5 14.2 356.9 26.6
2002-01-18 06:28:26 51°24.815 2°48.521 359 14.3 356.7 26.7
2002-01-18 06:28:33 51°24.842 2°48.519 0.3 14.2 356.7 26.4
2002-01-18 06:28:36 51°24.854 2°48.517 359.5 14.2 357.1 26.3
2002-01-18 06:28:42 51°24.877 2°48.515 0.5 14.1 356.3 26.1
2002-01-18 06:28:47 51°24.897 2°48.513 0.3 14.1 357.5 26.1
2002-01-18 06:28:52 51°24.917 2°48.51 359.8 14.2 355.8 27.3
2002-01-18 06:28:56 51°24.932 2°48.51 359.8 14.1 357.2 27.5
2002-01-18 06:29:02 51°24.956 2°48.506 359.3 14.1 355.5 27.6
2002-01-18 06:29:07 51°24.974 2°48.506 0.3 13.9 357.3 27.8
2002-01-18 06:29:11 51°24.988 2°48.503 359.2 13.3 355.8 28
2002-01-18 06:29:17 51°25.009 2°48.502 0.5 12.7 357.2 28.1
2002-01-18 06:29:23 51°25.029 2°48.499 358.8 12.2 356.1 28.2
2002-01-18 06:29:26 51°25.039 2°48.5 0.5 11.9 357.6 28.4
2002-01-18 06:29:31 51°25.055 2°48.497 359 11.7 356.5 28.5
2002-01-18 06:29:37 51°25.074 2°48.497   11.6 357.1 28.6
2002-01-18 06:29:41 51°25.087 2°48.495 358.7 11.4 356.4 28.6
2002-01-18 06:29:47 51°25.106 2°48.494 359.3 11.3 356.6 29
2002-01-18 06:29:52 51°25.121 2°48.492 358.3 11.2 356.5 29.1
2002-01-18 06:29:56 51°25.133 2°48.491 358.7 11.1 356.1 29.2
2002-01-18 06:30:01 51°25.148 2°48.489 359 11 356.4 29.4
2002-01-18 06:30:06 51°25.163 2°48.488 359.3 11 356.5 29.6
2002-01-18 06:30:11 51°25.178 2°48.486 358.5 10.9 356.4 29.8
2002-01-18 06:30:16 51°25.194 2°48.485 359.3 10.9 356.5 30.1
2002-01-18 06:30:22 51°25.212 2°48.483 358.3 10.9 356.2 30.1
2002-01-18 06:30:27 51°25.227 2°48.482 359.3 10.9 356.6 30.4
2002-01-18 06:30:31 51°25.239 2°48.481 358.3 10.8 356.3 30.5
2002-01-18 06:30:36 51°25.254 2°48.479 359.2 10.8 355.7 30.5
2002-01-18 06:30:41 51°25.269 2°48.479 357.5 10.8 356.7 30.6
2002-01-18 06:30:45 51°25.28 2°48.476 358.5 10.8 355.4 30.6
2002-01-18 06:30:51 51°25.298 2°48.476 358.2 10.8 356.6 30.6
2002-01-18 06:30:56 51°25.313 2°48.473 358.7 10.7 355.5 30.6
2002-01-18 06:31:02 51°25.331 2°48.472 358.8 10.7 356.9 30.5
2002-01-18 06:31:07 51°25.346 2°48.469 358.5 10.7 355.8 30.4
2002-01-18 06:31:13 51°25.364 2°48.468 359.3 10.7 357.2 30.4
2002-01-18 06:31:16 51°25.372 2°48.467 358.7 10.7 356.7 30.4
2002-01-18 06:31:21 51°25.387 2°48.467 359.5 10.7 357.4 30.3
2002-01-18 06:31:27 51°25.405 2°48.465 359.2 10.7 356.9 30.1
2002-01-18 06:31:31 51°25.417 2°48.465 359.3 10.7 357.6 29.9
2002-01-18 06:31:37 51°25.435 2°48.463 359.7 10.7 357.3 29.6
2002-01-18 06:31:42 51°25.45 2°48.462 359.2 10.7 357.6 29.3
2002-01-18 06:31:47 51°25.465 2°48.46 359.2 10.7 356.7 29.2
2002-01-18 06:31:52 51°25.479 2°48.459 359 10.7 357.6 28.6
2002-01-18 06:31:57 51°25.494 2°48.458 358.8 10.7 356.4 27.7
2002-01-18 06:32:01 51°25.506 2°48.458 358.8 10.7 357.3 26.6
2002-01-18 06:32:06 51°25.521 2°48.455 358.2 10.7 355.7 25.9
2002-01-18 06:32:11 51°25.536 2°48.454 358.3 10.7 357.1 25.2
2002-01-18 06:32:17 51°25.554 2°48.452 358 10.7 356 25
2002-01-18 06:32:21 51°25.565 2°48.451 359 10.7 357 24.9
2002-01-18 06:32:26 51°25.58 2°48.449 358.2 10.7 356.7 24.7
2002-01-18 06:32:31 51°25.595 2°48.448 359 10.7 356.6 24.7
2002-01-18 06:32:37 51°25.613 2°48.446 358.3 10.7 356.6 24.7
2002-01-18 06:32:41 51°25.625 2°48.445 358.3 10.7 355.9 24.7
2002-01-18 06:32:47 51°25.643 2°48.444 359.3 10.7 357.3 24.8
2002-01-18 06:32:51 51°25.654 2°48.441 358.7 10.7 356 24.7
2002-01-18 06:32:57 51°25.672 2°48.441 359.5 10.7 357.4 24.7
2002-01-18 06:33:01 51°25.684 2°48.439 359.3 10.8 356.5 24.7
2002-01-18 06:33:06 51°25.699 2°48.439 359.3 10.8 357.3 24.6
2002-01-18 06:33:11 51°25.714 2°48.437 359.7 10.7 357 24.6
2002-01-18 06:33:17 51°25.731 2°48.436 359.2 10.6 357.6 24.6
2002-01-18 06:33:22 51°25.745 2°48.436 359.7 10.1 357.4 24.7
2002-01-18 06:33:26 51°25.755 2°48.435 359.8 9.6 357.6 24.7
2002-01-18 06:33:31 51°25.768 2°48.435 0.5 9.2 358.5 24.7
2002-01-18 06:33:37 51°25.782 2°48.434 1 8.8 358.7 24.6
2002-01-18 06:33:41 51°25.791 2°48.434 1.8 8.4 359.8 24.6
2002-01-18 06:33:47 51°25.805 2°48.434 2.7 8.1 0.6 24.6
2002-01-18 06:33:51 51°25.813 2°48.435 3.7 7.9 1.5 24.6
2002-01-18 06:33:56 51°25.824 2°48.436 4.8 7.7 2.7 24.6
2002-01-18 06:34:03 51°25.838 2°48.437 5 7.4 3.1 24.6
2002-01-18 06:34:07 51°25.846 2°48.438 4.7 7.3 3.4 24.5
2002-01-18 06:34:13 51°25.857 2°48.439 4.3 7.1 3.1 24.5
2002-01-18 06:34:17 51°25.865 2°48.439 3.8 6.9 3.1 24.6
2002-01-18 06:34:22 51°25.874 2°48.44 3.3 6.7 2.4 24.6
2002-01-18 06:34:27 51°25.883 2°48.44 2.7 6.4 2.3 24.4
2002-01-18 06:34:33 51°25.893 2°48.441 1.8 6.2 2 24.5
2002-01-18 06:34:37 51°25.899 2°48.441 1 6 1.6 24.6
2002-01-18 06:34:41 51°25.905 2°48.441 0.2 5.8 1.3 24.5
2002-01-18 06:34:45 51°25.912 2°48.441 359 5.6 0.2 24.7
2002-01-18 06:34:51 51°25.921 2°48.441 358 5.5 359.8 24.6
2002-01-18 06:34:57 51°25.929 2°48.441 356.7 5.3 358.5 24.5
2002-01-18 06:35:01 51°25.935 2°48.441 355.7 5.2 358.2 24.5
2002-01-18 06:35:05 51°25.941 2°48.44 354.5 5.1 357.3 24.6
2002-01-18 06:35:11 51°25.949 2°48.439 353.5 4.9 356.6 24.4
2002-01-18 06:35:17 51°25.956 2°48.438 352.5 4.8 355.4 24.5
2002-01-18 06:35:22 51°25.963 2°48.437 351.3 4.7 354.4 24.4
2002-01-18 06:35:26 51°25.968 2°48.436 350.3 4.6 353.9 24.4
2002-01-18 06:35:31 51°25.974 2°48.435 349.3 4.4 353.3 24.4
2002-01-18 06:35:37 51°25.981 2°48.434 348.7 4.4 352.8 24.4
2002-01-18 06:35:41 51°25.985 2°48.432 347.8 4.2 352.1 24.7
2002-01-18 06:35:47 51°25.992 2°48.431 347.5 4.1 351.8 24.7
2002-01-18 06:35:51 51°25.997 2°48.43 346.8 4.1 352.1 24.7
2002-01-18 06:35:55 51°26.001 2°48.429 346.2 4 350.8 24.7
2002-01-18 06:36:02 51°26.008 2°48.427 345.7 3.9 350.6 24.6
2002-01-18 06:36:06 51°26.013 2°48.426 345 3.9 350 24.4
2002-01-18 06:36:13 51°26.02 2°48.424 344.3 3.8 350.3 24.5
2002-01-18 06:36:17 51°26.024 2°48.423 344 3.7 350 24.3
2002-01-18 06:36:22 51°26.029 2°48.421 343.3 3.7 349.7 24.1
2002-01-18 06:36:27 51°26.034 2°48.42 343 3.6 349.5 23.6
2002-01-18 06:36:32 51°26.039 2°48.418 342.5 3.6 349.1 22.6
2002-01-18 06:36:37 51°26.043 2°48.417 342.2 3.5 348.8 23.5
2002-01-18 06:36:42 51°26.048 2°48.415 341.5 3.5 348.5 24.2
2002-01-18 06:36:47 51°26.053 2°48.414 340.8 3.4 347.8 24.4
2002-01-18 06:36:51 51°26.056 2°48.412 340.5 3.4 347.8 24.6
2002-01-18 06:36:58 51°26.063 2°48.41 340 3.3 347.2 24.6
2002-01-18 06:37:02 51°26.066 2°48.409 339.7 3.3 346.7 24.5
2002-01-18 06:37:05 51°26.069 2°48.408 339.3 3.3 346.4 24.3
2002-01-18 06:37:11 51°26.074 2°48.406 338.8 3.2 345.9 24.4
2002-01-18 06:37:17 51°26.079 2°48.404 338.3 3.2 346.2 24.1
2002-01-18 06:37:22 51°26.084 2°48.402 337.8 3.2 345.5 24
2002-01-18 06:37:27 51°26.088 2°48.4 337.3 3.1 345.4 23.5
2002-01-18 06:37:31 51°26.091 2°48.399 336.8 3.1 344.7 22.8
2002-01-18 06:37:37 51°26.096 2°48.396 336.3 3.1 344.2 21.6
2002-01-18 06:37:42 51°26.1 2°48.394 335.7 3.1 343.8 22.3
2002-01-18 06:37:47 51°26.104 2°48.393 335 3.1 344 23.2
2002-01-18 06:37:51 51°26.107 2°48.391 334.7 3 343.7 23.9
2002-01-18 06:37:57 51°26.112 2°48.389 334.5 3 344.1 24.1
2002-01-18 06:38:03 51°26.117 2°48.386 334.5 3 343.6 24.2
2002-01-18 06:38:07 51°26.12 2°48.385 334.3 3 343.7 24.2
2002-01-18 06:38:12 51°26.124 2°48.383 333.7 3 343.6 24.2
2002-01-18 06:38:17 51°26.128 2°48.381 333.5 2.9 343.5 24.4
2002-01-18 06:38:22 51°26.131 2°48.38 333 2.8 343.2 24
2002-01-18 06:38:27 51°26.135 2°48.378 332.5 2.8 344 23.6
2002-01-18 06:38:32 51°26.139 2°48.376 332.5 2.7 343.9 23
2002-01-18 06:38:37 51°26.142 2°48.375 333 2.7 344.3 22.7
2002-01-18 06:38:42 51°26.145 2°48.373 333.3 2.6 345 21.7
2002-01-18 06:38:47 51°26.149 2°48.372 333.7 2.6 345.5 20.7
2002-01-18 06:38:52 51°26.152 2°48.371 334.5 2.5 346.4 20.2
2002-01-18 06:38:58 51°26.156 2°48.369 335.5 2.5 346.9 20.8
2002-01-18 06:39:02 51°26.159 2°48.368 336.5 2.4 347 21.4
2002-01-18 06:39:07 51°26.162 2°48.367 337 2.4 347.8 21.8
2002-01-18 06:39:13 51°26.166 2°48.366 337.7 2.3 348.8 22.3
2002-01-18 06:39:17 51°26.168 2°48.366 338.3 2.3 349.4 22.7
2002-01-18 06:39:22 51°26.171 2°48.365 339 2.3 349.8 22.8
2002-01-18 06:39:27 51°26.174 2°48.364 339.7 2.2 350.4 22.9
2002-01-18 06:39:33 51°26.178 2°48.363 340.3 2.2 351.6 23.1
2002-01-18 06:39:36 51°26.179 2°48.363 340.7 2.2 351.3 23.3
2002-01-18 06:39:42 51°26.183 2°48.362 341.7 2.1 352.8 23.4
2002-01-18 06:39:47 51°26.186 2°48.362 342.7 2.1 353.8 23.7
2002-01-18 06:39:52 51°26.189 2°48.361 343.5 2.1 355.6 23.8
2002-01-18 06:39:57 51°26.192 2°48.361 344.3 2 355.4 23.8
2002-01-18 06:40:02 51°26.194 2°48.361 345 2 356.7 23.8
2002-01-18 06:40:07 51°26.197 2°48.36 346.2 2 357 23.5
2002-01-18 06:40:11 51°26.199 2°48.36 346.8 2 357.2 23.6
2002-01-18 06:40:18 51°26.203 2°48.36 347.5 1.9 357.1 23.7
2002-01-18 06:40:22 51°26.205 2°48.36 348.2 1.9 358.6 23.4
2002-01-18 06:40:26 51°26.207 2°48.36 348.7 1.9 358.6 23.5
2002-01-18 06:40:31 51°26.21 2°48.36 349.7 1.9 359.7 23.2
2002-01-18 06:40:36 51°26.213 2°48.36 350.2 1.9 359.8 23.3
2002-01-18 06:40:41 51°26.215 2°48.36 351.2 1.9 0.6 23.3
2002-01-18 06:40:46 51°26.218 2°48.36 352.2 1.8 1.8 23
2002-01-18 06:40:53 51°26.221 2°48.36 352.7 1.8 2.6 22.5
2002-01-18 06:40:57 51°26.223 2°48.361 353.3 1.8 3.5 22.6
2002-01-18 06:41:01 51°26.225 2°48.361 354.2 1.8 4.5 22.5
2002-01-18 06:41:06 51°26.228 2°48.361 355 1.8 4.7 22.4
2002-01-18 06:41:11 51°26.23 2°48.362 356.5 1.8 6.8 21.9
2002-01-18 06:41:17 51°26.233 2°48.362 357.5 1.8 7.3 21.4
2002-01-18 06:41:21 51°26.235 2°48.363 358.3 1.8 6.9 21.5
2002-01-18 06:41:26 51°26.237 2°48.363 359.2 1.8 9.5 21.2
2002-01-18 06:41:33 51°26.241 2°48.364 359.8 1.7 7.7 20.6
2002-01-18 06:41:37 51°26.243 2°48.364 0.8 1.7 9.1 20.7
2002-01-18 06:41:41 51°26.244 2°48.365 1.7 1.7 10.6 21.4
2002-01-18 06:41:47 51°26.247 2°48.366 2.7 1.7 12 21.7
2002-01-18 06:41:51 51°26.249 2°48.366 3.3 1.7 11 22.1
2002-01-18 06:41:56 51°26.252 2°48.367 4.3 1.7 12.6 22.4
2002-01-18 06:42:03 51°26.255 2°48.369 4.8 1.7 11.9 22.4
2002-01-18 06:42:06 51°26.256 2°48.369 5.7 1.7 13.8 22.4
2002-01-18 06:42:12 51°26.259 2°48.37 6.2 1.7 13.1 22.4
2002-01-18 06:42:17 51°26.261 2°48.371 7 1.6 15.1 22.2
2002-01-18 06:42:22 51°26.263 2°48.372 7.7 1.6 15.1 21.6
2002-01-18 06:42:27 51°26.265 2°48.373 8.2 1.6 15.7 21.5
2002-01-18 06:42:33 51°26.268 2°48.374 8.7 1.6 15.1 21.3
2002-01-18 06:42:37 51°26.269 2°48.375 9.3 1.6 16.6 20.8
2002-01-18 06:42:42 51°26.271 2°48.376 9.5 1.6 16.4 19.7
2002-01-18 06:42:47 51°26.274 2°48.377 10.3 1.6 18.1 19.2
2002-01-18 06:42:52 51°26.276 2°48.378 10.7 1.6 17.5 18.7
2002-01-18 06:42:57 51°26.278 2°48.379 11.3 1.6 19 18.7
2002-01-18 06:43:02 51°26.28 2°48.381 11.7 1.6 18.3 18.8
2002-01-18 06:43:07 51°26.282 2°48.382 12 1.6 18.8 19.2
2002-01-18 06:43:12 51°26.284 2°48.383 12 1.6 18 19.3
2002-01-18 06:43:17 51°26.286 2°48.384 12.2 1.6 17.7 19.5
2002-01-18 06:43:22 51°26.288 2°48.385 12.7 1.6 18.4 19.6
2002-01-18 06:43:26 51°26.29 2°48.386 12.8 1.6 18.4 19.9
2002-01-18 06:43:32 51°26.292 2°48.387 13.3 1.6 19.8 20
2002-01-18 06:43:37 51°26.294 2°48.389 13.5 1.5 18.7 20.1
2002-01-18 06:43:42 51°26.296 2°48.39 13.8 1.5 19.5 20.3
2002-01-18 06:43:47 51°26.298 2°48.391 14 1.5 19.3 20.4
2002-01-18 06:43:53 51°26.3 2°48.392 13.8 1.5 19.7 20.6
2002-01-18 06:43:57 51°26.302 2°48.393 13.8 1.5 19.3 20.7
2002-01-18 06:44:01 51°26.303 2°48.394 14 1.5 19.6 20.9
2002-01-18 06:44:07 51°26.306 2°48.395 14.2 1.5 21.4 21
2002-01-18 06:44:12 51°26.308 2°48.396 14.7 1.5 21.5 21.1
2002-01-18 06:44:18 51°26.31 2°48.398 14.7 1.5 21.1 21.3
2002-01-18 06:44:23 51°26.312 2°48.399 14.8 1.5 21.1 21.4
2002-01-18 06:44:27 51°26.313 2°48.4 15 1.5 21 21.5
2002-01-18 06:44:33 51°26.315 2°48.401 14.8 1.4 21.1 21.7
2002-01-18 06:44:37 51°26.317 2°48.402 14.8 1.4 20.2 21.6
2002-01-18 06:44:43 51°26.319 2°48.404 14.7 1.4 20.6 21.6
2002-01-18 06:44:47 51°26.321 2°48.404 14.3 1.4 19.9 21.8
2002-01-18 06:44:52 51°26.322 2°48.405 14.2 1.4 20.2 21.7
2002-01-18 06:44:57 51°26.324 2°48.406 13.8 1.4 19.6 21.9
2002-01-18 06:45:02 51°26.326 2°48.407 13.8 1.4 18.6 21.8
2002-01-18 06:45:07 51°26.328 2°48.409 13.7 1.4 19.7 21.8
2002-01-18 06:45:13 51°26.331 2°48.41 13.5 1.4 17.3 21.9
2002-01-18 06:45:17 51°26.332 2°48.411 13.7 1.4 19.3 21.9
2002-01-18 06:45:21 51°26.333 2°48.411 13.3 1.3 18.6 22
2002-01-18 06:45:27 51°26.335 2°48.412 12.8 1.4 19.7 21.9
2002-01-18 06:45:33 51°26.337 2°48.413 13 1.4 19.8 21.9
2002-01-18 06:45:37 51°26.339 2°48.414 12.5 1.3 18.9 22
2002-01-18 06:45:41 51°26.34 2°48.415 12.5 1.3 19 21.8
2002-01-18 06:45:47 51°26.342 2°48.416 12.3 1.3 18.6 21.8
2002-01-18 06:45:51 51°26.344 2°48.417 12.5 1.3 18.1 21.6
2002-01-18 06:45:57 51°26.346 2°48.418 12.5 1.3 18.7 21.7
2002-01-18 06:46:01 51°26.347 2°48.418 12.5 1.3 17.8 21.7
2002-01-18 06:46:07 51°26.35 2°48.42 12.7 1.3 17.9 21.5
2002-01-18 06:46:11 51°26.351 2°48.42 13.2 1.3 19.3 21.4
2002-01-18 06:46:17 51°26.353 2°48.422 13.2 1.3 19.7 21.2
2002-01-18 06:46:21 51°26.354 2°48.422 13.5 1.3 19.9 20.9
2002-01-18 06:46:27 51°26.356 2°48.423 13.5 1.3 19.3 20.4
2002-01-18 06:46:33 51°26.358 2°48.425 14 1.3 20.6 20.1
2002-01-18 06:46:37 51°26.359 2°48.425 14.3 1.3 20.6 19.9
2002-01-18 06:46:43 51°26.361 2°48.427 15.2 1.3 22 19.6
2002-01-18 06:46:47 51°26.363 2°48.427 15 1.3 18.9 19.1
2002-01-18 06:46:51 51°26.364 2°48.428 15.2 1.3 20.6 18.4
2002-01-18 06:46:57 51°26.366 2°48.429 15.3 1.3 19.6 18
2002-01-18 06:47:01 51°26.368 2°48.43 15.5 1.3 19.4 17.9
2002-01-18 06:47:05 51°26.369 2°48.431 15.7 1.3 21.2 17.6
2002-01-18 06:47:13 51°26.372 2°48.433 16 1.3 21.4 17.7
2002-01-18 06:47:17 51°26.373 2°48.433 16 1.3 20.7 17.8
2002-01-18 06:47:21 51°26.374 2°48.434 16.3 1.3 21.6 18.1
2002-01-18 06:47:27 51°26.376 2°48.435 16 1.3 19.8 18.3
2002-01-18 06:47:31 51°26.378 2°48.436 16.3 1.3 20.3 18.6
2002-01-18 06:47:37 51°26.38 2°48.437 16.2 1.3 21.2 18.9
2002-01-18 06:47:41 51°26.381 2°48.438 16.2 1.3 20.9 19.2
2002-01-18 06:47:47 51°26.383 2°48.439 16.2 1.3 19.9 19.4
2002-01-18 06:47:52 51°26.385 2°48.44 16.5 1.3 21.6 19.6
2002-01-18 06:47:57 51°26.386 2°48.441 16.5 1.3 21.2 19.9
2002-01-18 06:48:01 51°26.388 2°48.442 16.5 1.3 21.6 20.2
2002-01-18 06:48:07 51°26.39 2°48.443 16 1.3 20.3 20.4
2002-01-18 06:48:11 51°26.391 2°48.444 15.8 1.3 20.8 20.6
2002-01-18 06:48:17 51°26.393 2°48.445 15.7 1.3 21.1 20.7
2002-01-18 06:48:21 51°26.394 2°48.446 16.2 1.2 21.6 20.9
2002-01-18 06:48:27 51°26.396 2°48.447 16.5 1.3 22.3 20.9
2002-01-18 06:48:32 51°26.398 2°48.449 16.8 1.3 22.8 21.1
2002-01-18 06:48:37 51°26.4 2°48.449 17.2 1.4 20.6 21.1
2002-01-18 06:48:43 51°26.402 2°48.451 18.2 1.4 22.2 21.4
2002-01-18 06:48:47 51°26.403 2°48.452 19.2 1.5 21.1 21.4
2002-01-18 06:48:53 51°26.406 2°48.454 20.3 1.5 22.9 21.6
2002-01-18 06:48:57 51°26.407 2°48.455 21.7 1.6 22 21.7
2002-01-18 06:49:03 51°26.41 2°48.456 23 1.6 23.2 21.7
2002-01-18 06:49:07 51°26.412 2°48.458 24 1.7 21.3 21.8
2002-01-18 06:49:13 51°26.414 2°48.459 25.7 1.7 23 21.9
2002-01-18 06:49:17 51°26.416 2°48.461 27 1.8 21.8 22.1
2002-01-18 06:49:22 51°26.418 2°48.462 28.5 1.8 24.9 22.2
2002-01-18 06:49:27 51°26.421 2°48.464 30.2 1.9 24.3 22.3
2002-01-18 06:49:33 51°26.424 2°48.467 32.3 1.9 26.8 22.2
2002-01-18 06:49:37 51°26.425 2°48.468 34.7 1.9 27.2 22.3
2002-01-18 06:49:42 51°26.428 2°48.471 37.5 1.9 29.9 22.3